createdAt,value
2023-04-15T00:02:02.871Z,96143.44
2023-04-15T00:04:34.147Z,96141.16
2023-04-15T00:07:05.085Z,96137.03
2023-04-15T00:09:35.765Z,96146.47
2023-04-15T00:12:09.390Z,96154.84
2023-04-15T00:14:40.102Z,96165.53
2023-04-15T00:17:11.032Z,96170.66
2023-04-15T00:19:42.154Z,96177.44
2023-04-15T00:22:13.077Z,96179.06
2023-04-15T00:24:44.236Z,96176.41
2023-04-15T00:27:17.680Z,96177.03
2023-04-15T00:29:48.605Z,96162.03
2023-04-15T00:32:19.390Z,96162.03
2023-04-15T00:34:50.187Z,96154.81
2023-04-15T00:37:21.072Z,96145.19
2023-04-15T00:39:52.435Z,96148.88
2023-04-15T00:42:26.067Z,96143.75
2023-04-15T00:44:57.611Z,96148.28
2023-04-15T00:47:29.683Z,96153.59
2023-04-15T00:50:00.492Z,96166.38
2023-04-15T00:52:31.469Z,96163.91
2023-04-15T00:55:02.705Z,96163.31
2023-04-15T00:57:37.068Z,96154.47
2023-04-15T01:00:09.960Z,96143.78
2023-04-15T01:02:41.393Z,96137.41
2023-04-15T01:05:12.674Z,96122.22
2023-04-15T01:07:43.912Z,96121.19
2023-04-15T01:10:15.101Z,96129.78
2023-04-15T01:12:49.492Z,96139.47
2023-04-15T01:15:20.760Z,96148.28
2023-04-15T01:17:52.110Z,96159.78
2023-04-15T01:20:23.761Z,96157.94
2023-04-15T01:22:54.722Z,96160.38
2023-04-15T01:25:35.059Z,96149.69
2023-04-15T01:28:06.369Z,96148.88
2023-04-15T01:30:38.420Z,96142.09
2023-04-15T01:33:09.217Z,96142.91
2023-04-15T01:35:58.063Z,96147.00
2023-04-15T01:38:31.018Z,96139.22
2023-04-15T01:41:04.643Z,96148.41
2023-04-15T01:43:35.522Z,96140.41
2023-04-15T01:46:06.531Z,96120.69
2023-04-15T01:48:37.683Z,96108.81
2023-04-15T01:51:08.547Z,96115.34
2023-04-15T01:53:39.538Z,96137.94
2023-04-15T01:56:14.707Z,96144.06
2023-04-15T01:58:47.898Z,96157.22
2023-04-15T02:01:20.116Z,96162.34
2023-04-15T02:03:51.176Z,96165.03
2023-04-15T02:06:21.863Z,96158.06
2023-04-15T02:08:52.625Z,96151.88
2023-04-15T02:11:26.241Z,96144.28
2023-04-15T02:13:57.415Z,96144.72
2023-04-15T02:16:29.605Z,96149.66
2023-04-15T02:19:00.589Z,96142.91
2023-04-15T02:21:31.366Z,96136.75
2023-04-15T02:24:02.691Z,96133.25
2023-04-15T02:26:35.983Z,96144.97
2023-04-15T02:29:07.153Z,96168.38
2023-04-15T02:31:40.801Z,96169.44
2023-04-15T02:34:11.544Z,96165.31
2023-04-15T02:36:42.272Z,96165.75
2023-04-15T02:39:15.154Z,96174.19
2023-04-15T02:41:52.265Z,96174.63
2023-04-15T02:44:25.278Z,96189.41
2023-04-15T02:47:00.926Z,96185.72
2023-04-15T02:49:32.007Z,96188.22
2023-04-15T02:52:02.601Z,96191.28
2023-04-15T02:54:34.702Z,96197.06
2023-04-15T02:57:08.551Z,96190.50
2023-04-15T02:59:39.782Z,96188.88
2023-04-15T03:02:10.915Z,96189.28
2023-04-15T03:04:41.763Z,96183.31
2023-04-15T03:07:12.366Z,96183.75
2023-04-15T03:09:43.554Z,96194.84
2023-04-15T03:12:19.750Z,96195.25
2023-04-15T03:14:50.849Z,96195.69
2023-04-15T03:17:21.588Z,96188.91
2023-04-15T03:19:53.355Z,96180.50
2023-04-15T03:22:23.856Z,96174.75
2023-04-15T03:24:56.481Z,96177.63
2023-04-15T03:27:29.765Z,96169.03
2023-04-15T03:30:04.274Z,96182.56
2023-04-15T03:32:37.086Z,96191.81
2023-04-15T03:35:10.585Z,96200.22
2023-04-15T03:37:41.370Z,96219.91
2023-04-15T03:40:13.090Z,96230.97
2023-04-15T03:42:46.382Z,96237.13
2023-04-15T03:45:17.101Z,96239.16
2023-04-15T03:47:47.878Z,96247.97
2023-04-15T03:50:18.770Z,96251.03
2023-04-15T03:52:50.739Z,96262.47
2023-04-15T03:55:22.075Z,96277.41
2023-04-15T03:57:55.332Z,96272.41
2023-04-15T04:00:26.161Z,96267.50
2023-04-15T04:02:57.402Z,96271.38
2023-04-15T04:05:28.149Z,96287.34
2023-04-15T04:07:58.769Z,96269.28
2023-04-15T04:10:30.518Z,96274.59
2023-04-15T04:13:03.817Z,96270.91
2023-04-15T04:15:34.464Z,96294.25
2023-04-15T04:18:05.150Z,96290.97
2023-04-15T04:20:35.994Z,96297.97
2023-04-15T04:23:06.865Z,96304.91
2023-04-15T04:25:38.002Z,96321.91
2023-04-15T04:28:12.019Z,96324.59
2023-04-15T04:30:42.906Z,96340.16
2023-04-15T04:33:13.647Z,96351.44
2023-04-15T04:35:44.331Z,96350.41
2023-04-15T04:38:14.984Z,96366.38
2023-04-15T04:40:45.766Z,96367.41
2023-04-15T04:43:19.092Z,96353.47
2023-04-15T04:45:49.810Z,96357.78
2023-04-15T04:48:20.371Z,96359.03
2023-04-15T04:50:51.390Z,96352.50
2023-04-15T04:53:22.140Z,96351.06
2023-04-15T04:55:53.092Z,96348.81
2023-04-15T04:58:26.746Z,96344.09
2023-04-15T05:00:57.633Z,96346.78
2023-04-15T05:03:28.356Z,96343.94
2023-04-15T05:05:59.602Z,96343.97
2023-04-15T05:08:30.167Z,96344.00
2023-04-15T05:11:00.903Z,96348.13
2023-04-15T05:13:34.036Z,96335.88
2023-04-15T05:16:04.649Z,96346.34
2023-04-15T05:18:35.381Z,96346.19
2023-04-15T05:21:06.342Z,96345.38
2023-04-15T05:23:37.952Z,96345.78
2023-04-15T05:26:08.809Z,96353.22
2023-04-15T05:28:42.031Z,96343.41
2023-04-15T05:31:12.662Z,96340.34
2023-04-15T05:33:43.661Z,96336.06
2023-04-15T05:36:14.433Z,96339.09
2023-04-15T05:38:45.009Z,96347.78
2023-04-15T05:41:18.390Z,96329.44
2023-04-15T05:43:53.017Z,96332.06
2023-04-15T05:46:23.794Z,96329.97
2023-04-15T05:48:56.378Z,96327.97
2023-04-15T05:51:27.597Z,96323.34
2023-04-15T05:53:58.213Z,96325.78
2023-04-15T05:56:29.625Z,96334.31
2023-04-15T05:59:02.950Z,96331.91
2023-04-15T06:01:33.806Z,96343.09
2023-04-15T06:04:04.647Z,96357.34
2023-04-15T06:06:35.660Z,96352.53
2023-04-15T06:09:06.588Z,96361.16
2023-04-15T06:11:37.322Z,96360.16
2023-04-15T06:14:10.510Z,96368.56
2023-04-15T06:16:41.370Z,96375.00
2023-04-15T06:19:12.696Z,96373.97
2023-04-15T06:21:43.665Z,96380.78
2023-04-15T06:24:14.961Z,96379.16
2023-04-15T06:26:45.594Z,96379.84
2023-04-15T06:29:18.840Z,96379.75
2023-04-15T06:31:50.973Z,96391.59
2023-04-15T06:34:21.967Z,96380.03
2023-04-15T06:36:52.678Z,96383.31
2023-04-15T06:39:23.330Z,96388.00
2023-04-15T06:41:54.170Z,96392.63
2023-04-15T06:44:28.303Z,96405.22
2023-04-15T06:46:58.905Z,96388.44
2023-04-15T06:49:29.573Z,96393.41
2023-04-15T06:52:00.959Z,96392.47
2023-04-15T06:54:31.624Z,96393.59
2023-04-15T06:57:02.605Z,96393.22
2023-04-15T06:59:35.842Z,96396.22
2023-04-15T07:02:06.610Z,96397.44
2023-04-15T07:04:37.372Z,96388.88
2023-04-15T07:07:08.462Z,96386.22
2023-04-15T07:09:39.143Z,96395.91
2023-04-15T07:12:09.893Z,96396.25
2023-04-15T07:14:43.114Z,96394.88
2023-04-15T07:17:13.926Z,96396.47
2023-04-15T07:19:44.616Z,96397.53
2023-04-15T07:22:15.286Z,96392.47
2023-04-15T07:24:45.884Z,96397.91
2023-04-15T07:27:16.766Z,96402.97
2023-04-15T07:29:51.811Z,96397.06
2023-04-15T07:32:22.885Z,96399.28
2023-04-15T07:34:53.885Z,96395.19
2023-04-15T07:37:24.587Z,96402.53
2023-04-15T07:39:55.707Z,96391.66
2023-04-15T07:42:26.471Z,96398.53
2023-04-15T07:45:00.377Z,96399.78
2023-04-15T07:47:31.231Z,96396.72
2023-04-15T07:50:02.559Z,96401.66
2023-04-15T07:52:39.363Z,96398.25
2023-04-15T07:55:11.779Z,96400.56
2023-04-15T07:57:42.490Z,96405.22
2023-04-15T08:00:17.700Z,96402.47
2023-04-15T08:02:48.708Z,96403.44
2023-04-15T08:05:20.039Z,96401.66
2023-04-15T08:07:50.972Z,96409.50
2023-04-15T08:10:24.612Z,96413.63
2023-04-15T08:12:55.371Z,96419.34
2023-04-15T08:15:29.766Z,96419.31
2023-04-15T08:18:01.049Z,96429.56
2023-04-15T08:20:31.823Z,96431.34
2023-04-15T08:23:02.580Z,96414.91
2023-04-15T08:25:33.730Z,96422.59
2023-04-15T08:28:07.796Z,96425.00
2023-04-15T08:30:41.070Z,96417.34
2023-04-15T08:33:11.831Z,96418.25
2023-04-15T08:35:42.443Z,96412.19
2023-04-15T08:38:13.277Z,96415.28
2023-04-15T08:40:45.872Z,96401.88
2023-04-15T08:43:22.251Z,96410.16
2023-04-15T08:46:00.569Z,96404.13
2023-04-15T08:48:32.954Z,96413.25
2023-04-15T08:51:04.622Z,96408.22
2023-04-15T08:53:35.867Z,96409.25
2023-04-15T08:56:10.853Z,96409.47
2023-04-15T08:58:41.978Z,96391.19
2023-04-15T09:01:16.273Z,96398.47
2023-04-15T09:03:47.699Z,96393.69
2023-04-15T09:06:20.235Z,96392.19
2023-04-15T09:08:51.190Z,96391.41
2023-04-15T09:11:22.277Z,96403.19
2023-04-15T09:13:53.122Z,96393.72
2023-04-15T09:16:26.427Z,96391.84
2023-04-15T09:18:57.190Z,96382.91
2023-04-15T09:21:29.883Z,96379.41
2023-04-15T09:24:02.895Z,96385.38
2023-04-15T09:26:35.742Z,96384.84
2023-04-15T09:29:09.822Z,96379.44
2023-04-15T09:31:43.868Z,96381.06
2023-04-15T09:34:14.787Z,96381.34
2023-04-15T09:37:00.183Z,96378.03
2023-04-15T09:39:30.764Z,96379.91
2023-04-15T09:42:10.161Z,96375.53
2023-04-15T09:44:41.160Z,96378.25
2023-04-15T09:47:31.830Z,96378.50
2023-04-15T09:50:03.907Z,96374.72
2023-04-15T09:52:34.665Z,96372.81
2023-04-15T09:55:05.380Z,96380.69
2023-04-15T09:57:41.486Z,96370.69
2023-04-15T10:00:13.398Z,96378.31
2023-04-15T10:02:47.473Z,96387.00
2023-04-15T10:05:19.640Z,96379.41
2023-04-15T10:07:50.863Z,96361.56
2023-04-15T10:10:21.886Z,96357.75
2023-04-15T10:12:54.560Z,96359.09
2023-04-15T10:15:26.761Z,96362.06
2023-04-15T10:18:00.913Z,96368.00
2023-04-15T10:20:35.552Z,96363.13
2023-04-15T10:23:08.134Z,96360.66
2023-04-15T10:25:40.681Z,96362.28
2023-04-15T10:28:11.743Z,96363.66
2023-04-15T10:30:42.615Z,96374.81
2023-04-15T10:33:17.465Z,96361.78
2023-04-15T10:35:49.317Z,96370.16
2023-04-15T10:38:44.826Z,96360.69
2023-04-15T10:41:21.263Z,96357.16
2023-04-15T10:43:54.459Z,96354.72
2023-04-15T10:46:26.940Z,96366.66
2023-04-15T10:49:01.349Z,96362.59
2023-04-15T10:51:33.885Z,96364.75
2023-04-15T10:54:04.635Z,96354.94
2023-04-15T10:56:35.871Z,96356.25
2023-04-15T10:59:08.849Z,96361.91
2023-04-15T11:02:04.857Z,96357.81
2023-04-15T11:05:01.182Z,96353.00
2023-04-15T11:07:42.640Z,96357.09
2023-04-15T11:11:00.499Z,96358.50
2023-04-15T11:13:33.466Z,96365.00
2023-04-15T11:16:05.573Z,96357.06
2023-04-15T11:18:38.325Z,96348.34
2023-04-15T11:21:12.535Z,96339.13
2023-04-15T11:23:47.133Z,96339.09
2023-04-15T11:26:18.000Z,96345.34
2023-04-15T11:28:49.731Z,96345.56
2023-04-15T11:31:23.596Z,96340.09
2023-04-15T11:33:59.589Z,96336.75
2023-04-15T11:36:34.351Z,96335.09
2023-04-15T11:39:05.252Z,96330.41
2023-04-15T11:41:36.029Z,96315.75
2023-04-15T11:44:06.942Z,96321.78
2023-04-15T11:46:37.604Z,96320.75
2023-04-15T11:49:08.274Z,96319.25
2023-04-15T11:51:41.759Z,96322.84
2023-04-15T11:54:12.563Z,96320.19
2023-04-15T11:56:43.512Z,96312.59
2023-04-15T11:59:14.220Z,96314.00
2023-04-15T12:01:47.090Z,96318.31
2023-04-15T12:04:25.220Z,96310.19
2023-04-15T12:07:08.146Z,96302.38
2023-04-15T12:09:41.620Z,96305.91
2023-04-15T12:12:12.888Z,96310.56
2023-04-15T12:14:43.686Z,96310.00
2023-04-15T12:17:14.686Z,96306.75
2023-04-15T12:19:46.085Z,96299.41
2023-04-15T12:22:20.975Z,96298.59
2023-04-15T12:24:58.676Z,96307.81
2023-04-15T12:27:30.045Z,96311.31
2023-04-15T12:30:09.274Z,96305.63
2023-04-15T12:32:42.184Z,96302.38
2023-04-15T12:35:14.684Z,96286.66
2023-04-15T12:37:48.116Z,96300.19
2023-04-15T12:40:18.907Z,96296.94
2023-04-15T12:42:50.664Z,96291.25
2023-04-15T12:45:21.797Z,96286.91
2023-04-15T12:47:52.736Z,96290.41
2023-04-15T12:50:23.546Z,96288.25
2023-04-15T12:52:57.026Z,96282.81
2023-04-15T12:55:28.075Z,96288.25
2023-04-15T12:57:58.842Z,96279.59
2023-04-15T13:00:29.572Z,96255.22
2023-04-15T13:03:00.427Z,96270.91
2023-04-15T13:05:31.393Z,96274.69
2023-04-15T13:08:04.829Z,96280.63
2023-04-15T13:10:36.849Z,96268.19
2023-04-15T13:13:08.286Z,96274.13
2023-04-15T13:15:39.031Z,96271.41
2023-04-15T13:18:10.790Z,96283.59
2023-04-15T13:20:41.783Z,96285.19
2023-04-15T13:23:15.340Z,96280.56
2023-04-15T13:25:46.481Z,96256.97
2023-04-15T13:28:17.235Z,96272.97
2023-04-15T13:30:49.231Z,96284.63
2023-04-15T13:33:20.527Z,96279.19
2023-04-15T13:35:51.176Z,96284.88
2023-04-15T13:38:24.633Z,96274.28
2023-04-15T13:40:55.394Z,96281.59
2023-04-15T13:43:26.784Z,96280.47
2023-04-15T13:45:57.662Z,96297.25
2023-04-15T13:48:28.843Z,96295.88
2023-04-15T13:50:59.579Z,96293.97
2023-04-15T13:53:38.493Z,96296.41
2023-04-15T13:56:11.028Z,96294.47
2023-04-15T13:58:42.209Z,96303.38
2023-04-15T14:01:13.185Z,96304.44
2023-04-15T14:03:44.140Z,96302.78
2023-04-15T14:06:14.853Z,96313.88
2023-04-15T14:08:48.417Z,96307.88
2023-04-15T14:11:19.104Z,96308.97
2023-04-15T14:13:50.033Z,96295.97
2023-04-15T14:16:20.805Z,96305.97
2023-04-15T14:18:51.704Z,96303.25
2023-04-15T14:21:22.461Z,96302.72
2023-04-15T14:23:55.933Z,96311.91
2023-04-15T14:26:26.740Z,96317.56
2023-04-15T14:28:57.708Z,96315.13
2023-04-15T14:31:28.571Z,96308.34
2023-04-15T14:33:59.489Z,96309.44
2023-04-15T14:36:30.555Z,96319.69
2023-04-15T14:39:04.509Z,96317.50
2023-04-15T14:41:35.529Z,96325.88
2023-04-15T14:44:06.323Z,96341.31
2023-04-15T14:46:37.028Z,96332.63
2023-04-15T14:49:08.826Z,96342.31
2023-04-15T14:51:41.672Z,96342.50
2023-04-15T14:54:15.379Z,96342.72
2023-04-15T14:56:46.105Z,96341.59
2023-04-15T14:59:16.788Z,96338.63
2023-04-15T15:01:47.593Z,96326.97
2023-04-15T15:04:18.703Z,96325.34
2023-04-15T15:06:50.556Z,96327.22
2023-04-15T15:09:24.189Z,96327.22
2023-04-15T15:11:54.914Z,96321.03
2023-04-15T15:14:25.658Z,96315.88
2023-04-15T15:16:56.382Z,96319.66
2023-04-15T15:19:27.299Z,96310.72
2023-04-15T15:21:58.090Z,96314.50
2023-04-15T15:24:31.691Z,96316.13
2023-04-15T15:27:02.606Z,96312.88
2023-04-15T15:29:33.474Z,96318.28
2023-04-15T15:32:04.136Z,96315.00
2023-04-15T15:34:34.847Z,96309.59
2023-04-15T15:37:05.584Z,96312.06
2023-04-15T15:39:39.211Z,96303.09
2023-04-15T15:42:10.018Z,96310.44
2023-04-15T15:44:41.092Z,96307.16
2023-04-15T15:47:11.952Z,96308.50
2023-04-15T15:49:43.377Z,96307.94
2023-04-15T15:52:16.574Z,96317.13
2023-04-15T15:54:50.190Z,96318.13
2023-04-15T15:57:21.227Z,96323.00
2023-04-15T16:00:04.941Z,96318.59
2023-04-15T16:05:17.022Z,96333.59
2023-04-15T16:07:47.739Z,96331.34
2023-04-15T16:10:21.298Z,96332.63
2023-04-15T16:12:51.983Z,96343.88
2023-04-15T16:15:23.041Z,96345.59
2023-04-15T16:17:54.057Z,96340.56
2023-04-15T16:20:25.112Z,96340.41
2023-04-15T16:22:55.851Z,96342.06
2023-04-15T16:25:29.357Z,96334.84
2023-04-15T16:28:08.569Z,96336.25
2023-04-15T16:30:45.248Z,96335.84
2023-04-15T16:33:15.977Z,96338.38
2023-04-15T16:35:46.828Z,96336.06
2023-04-15T16:38:17.532Z,96339.69
2023-04-15T16:40:51.824Z,96346.28
2023-04-15T16:43:22.657Z,96338.84
2023-04-15T16:45:53.475Z,96343.56
2023-04-15T16:48:24.696Z,96337.03
2023-04-15T16:50:55.778Z,96338.00
2023-04-15T16:53:26.682Z,96333.59
2023-04-15T16:56:00.096Z,96332.91
2023-04-15T16:58:30.918Z,96339.00
2023-04-15T17:01:02.219Z,96337.75
2023-04-15T17:03:34.468Z,96347.13
2023-04-15T17:06:05.460Z,96348.34
2023-04-15T17:08:36.246Z,96345.22
2023-04-15T17:11:09.830Z,96357.44
2023-04-15T17:13:40.869Z,96348.63
2023-04-15T17:16:12.812Z,96353.31
2023-04-15T17:18:47.814Z,96345.16
2023-04-15T17:21:29.627Z,96345.28
2023-04-15T17:24:05.376Z,96355.47
2023-04-15T17:26:47.531Z,96367.50
2023-04-15T17:29:20.917Z,96334.78
2023-04-15T17:31:56.199Z,96367.38
2023-04-15T17:34:50.546Z,96367.28
2023-04-15T17:37:41.779Z,96363.56
2023-04-15T17:40:32.528Z,96364.00
2023-04-15T17:43:25.677Z,96371.47
2023-04-15T17:46:16.688Z,96368.69
2023-04-15T17:49:07.425Z,96376.19
2023-04-15T17:51:58.110Z,96378.03
2023-04-15T17:54:50.026Z,96394.94
2023-04-15T17:57:41.194Z,96403.94
2023-04-15T18:00:34.415Z,96400.31
2023-04-15T18:03:25.135Z,96408.19
2023-04-15T18:06:17.236Z,96402.50
2023-04-15T18:09:09.021Z,96408.31
2023-04-15T18:11:59.633Z,96408.13
2023-04-15T18:14:50.414Z,96412.44
2023-04-15T18:17:43.565Z,96404.44
2023-04-15T18:20:19.507Z,96412.44
2023-04-15T18:22:52.239Z,96422.09
2023-04-15T18:25:23.664Z,96426.41
2023-04-15T18:27:54.525Z,96419.19
2023-04-15T18:30:25.445Z,96425.94
2023-04-15T18:32:59.000Z,96419.75
2023-04-15T18:35:30.237Z,96416.19
2023-04-15T18:38:01.627Z,96422.50
2023-04-15T18:40:35.483Z,96432.31
2023-04-15T18:43:06.997Z,96428.94
2023-04-15T18:45:38.130Z,96426.81
2023-04-15T18:48:11.889Z,96440.75
2023-04-15T18:50:42.835Z,96434.13
2023-04-15T18:53:13.734Z,96443.91
2023-04-15T18:55:44.502Z,96449.03
2023-04-15T18:58:15.999Z,96442.50
2023-04-15T19:00:46.826Z,96421.78
2023-04-15T19:03:20.553Z,96452.69
2023-04-15T19:05:51.276Z,96459.69
2023-04-15T19:08:22.221Z,96459.84
2023-04-15T19:10:53.058Z,96455.69
2023-04-15T19:13:24.571Z,96438.53
2023-04-15T19:15:55.631Z,96447.56
2023-04-15T19:18:29.760Z,96450.38
2023-04-15T19:21:00.677Z,96453.03
2023-04-15T19:23:32.023Z,96453.19
2023-04-15T19:26:02.828Z,96455.25
2023-04-15T19:28:33.680Z,96452.53
2023-04-15T19:31:04.712Z,96450.22
2023-04-15T19:33:38.418Z,96453.25
2023-04-15T19:36:10.743Z,96453.22
2023-04-15T19:38:41.777Z,96460.16
2023-04-15T19:41:13.507Z,96456.22
2023-04-15T19:43:44.471Z,96450.84
2023-04-15T19:46:15.770Z,96456.78
2023-04-15T19:48:49.424Z,96457.56
2023-04-15T19:51:21.803Z,96459.50
2023-04-15T19:53:54.459Z,96440.84
2023-04-15T19:56:26.988Z,96462.50
2023-04-15T19:59:00.165Z,96457.06
2023-04-15T20:01:31.290Z,96456.94
2023-04-15T20:04:05.079Z,96468.28
2023-04-15T20:06:36.219Z,96457.84
2023-04-15T20:09:08.997Z,96460.59
2023-04-15T20:12:45.969Z,96459.81
2023-04-15T20:14:32.794Z,96459.84
2023-04-15T20:17:03.600Z,96458.81
2023-04-15T20:19:36.966Z,96458.19
2023-04-15T20:22:07.803Z,96451.66
2023-04-15T20:24:38.589Z,96452.09
2023-04-15T20:27:09.398Z,96457.44
2023-04-15T20:29:40.370Z,96458.47
2023-04-15T20:32:11.902Z,96465.84
2023-04-15T20:34:45.235Z,96463.38
2023-04-15T20:37:16.492Z,96465.63
2023-04-15T20:39:47.787Z,96463.16
2023-04-15T20:42:18.547Z,96455.34
2023-04-15T20:44:49.538Z,96455.78
2023-04-15T20:47:20.427Z,96466.84
2023-04-15T20:49:54.321Z,96467.88
2023-04-15T20:52:25.179Z,96468.28
2023-04-15T20:54:56.263Z,96463.97
2023-04-15T20:57:29.075Z,96464.19
2023-04-15T21:00:00.019Z,96455.75
2023-04-15T21:02:31.068Z,96455.13
2023-04-15T21:05:05.063Z,96447.50
2023-04-15T21:07:36.413Z,96454.31
2023-04-15T21:10:07.589Z,96452.25
2023-04-15T21:12:41.653Z,96455.94
2023-04-15T21:15:13.485Z,96449.38
2023-04-15T21:17:44.451Z,96445.25
2023-04-15T21:20:18.492Z,96438.28
2023-04-15T21:22:49.416Z,96444.56
2023-04-15T21:25:20.551Z,96452.56
2023-04-15T21:27:51.509Z,96457.31
2023-04-15T21:30:24.132Z,96449.63
2023-04-15T21:32:56.073Z,96455.97
2023-04-15T21:35:30.792Z,96455.09
2023-04-15T21:38:01.756Z,96454.28
2023-04-15T21:40:32.960Z,96452.84
2023-04-15T21:43:03.689Z,96454.44
2023-04-15T21:45:34.533Z,96449.69
2023-04-15T21:48:07.608Z,96459.94
2023-04-15T21:50:42.457Z,96463.38
2023-04-15T21:53:13.225Z,96468.50
2023-04-15T21:55:43.977Z,96464.34
2023-04-15T21:58:14.656Z,96468.03
2023-04-15T22:00:45.269Z,96468.88
2023-04-15T22:03:16.351Z,96472.34
2023-04-15T22:05:50.297Z,96469.25
2023-04-15T22:08:21.132Z,96459.25
2023-04-15T22:10:51.994Z,96462.91
2023-04-15T22:13:22.635Z,96461.91
2023-04-15T22:15:53.514Z,96463.72
2023-04-15T22:18:24.451Z,96455.31
2023-04-15T22:20:57.972Z,96445.66
2023-04-15T22:23:28.709Z,96467.47
2023-04-15T22:25:59.479Z,96463.16
2023-04-15T22:28:30.367Z,96458.13
2023-04-15T22:31:01.377Z,96467.72
2023-04-15T22:33:32.089Z,96455.63
2023-04-15T22:36:05.801Z,96455.00
2023-04-15T22:38:36.772Z,96446.38
2023-04-15T22:41:07.569Z,96448.31
2023-04-15T22:43:38.319Z,96445.78
2023-04-15T22:46:09.273Z,96440.56
2023-04-15T22:48:40.431Z,96439.06
2023-04-15T22:51:13.815Z,96442.47
2023-04-15T22:53:45.024Z,96429.09
2023-04-15T22:56:17.578Z,96404.53
2023-04-15T22:58:48.541Z,96423.28
2023-04-15T23:01:21.115Z,96430.66
2023-04-15T23:03:56.983Z,96427.34
2023-04-15T23:06:40.416Z,96415.44
2023-04-15T23:09:11.633Z,96421.78
2023-04-15T23:11:42.686Z,96402.50
2023-04-15T23:14:13.975Z,96418.53
2023-04-15T23:16:45.855Z,96430.63
2023-04-15T23:19:17.219Z,96426.06
2023-04-15T23:21:50.878Z,96425.06
2023-04-15T23:24:21.732Z,96421.09
2023-04-15T23:26:53.386Z,96434.03
2023-04-15T23:29:24.249Z,96433.38
2023-04-15T23:31:55.118Z,96429.38
2023-04-15T23:34:26.021Z,96429.56
2023-04-15T23:36:59.605Z,96423.69
2023-04-15T23:39:30.526Z,96423.03
2023-04-15T23:42:01.641Z,96419.75
2023-04-15T23:44:32.593Z,96427.13
2023-04-15T23:47:03.521Z,96423.94
2023-04-15T23:49:34.397Z,96430.88
2023-04-15T23:52:08.047Z,96426.84
2023-04-15T23:54:38.795Z,96412.81
2023-04-15T23:57:09.705Z,96421.53
2023-04-15T23:59:40.878Z,96409.72
